createdAt,value
2016-09-09T00:00:34.826Z,25.97
2016-09-09T00:01:34.885Z,25.87
2016-09-09T00:02:34.528Z,25.97
2016-09-09T00:03:34.224Z,26.01
2016-09-09T00:04:34.855Z,25.99
2016-09-09T00:05:34.553Z,26.07
2016-09-09T00:06:34.561Z,26.02
2016-09-09T00:07:34.568Z,25.99
2016-09-09T00:08:34.939Z,26.01
2016-09-09T00:09:34.271Z,25.88
2016-09-09T00:10:34.903Z,25.91
2016-09-09T00:11:34.601Z,25.98
2016-09-09T00:12:34.928Z,25.87
2016-09-09T00:13:34.616Z,25.85
2016-09-09T00:14:34.624Z,25.87
2016-09-09T00:15:34.631Z,25.9
2016-09-09T00:16:34.638Z,25.91
2016-09-09T00:17:34.960Z,25.9
2016-09-09T00:18:34.967Z,25.94
2016-09-09T00:19:34.351Z,25.87
2016-09-09T00:20:34.981Z,25.87
2016-09-09T00:21:34.677Z,25.85
2016-09-09T00:22:35.002Z,25.94
2016-09-09T00:23:36.358Z,25.92
2016-09-09T00:24:34.395Z,25.87
2016-09-09T00:25:34.398Z,25.87
2016-09-09T00:26:35.691Z,25.9
2016-09-09T00:27:35.051Z,25.87
2016-09-09T00:28:34.732Z,25.94
2016-09-09T00:29:35.050Z,25.88
2016-09-09T00:30:35.060Z,25.92
2016-09-09T00:31:35.073Z,25.94
2016-09-09T00:32:34.767Z,25.94
2016-09-09T00:33:34.775Z,25.9
2016-09-09T00:34:35.940Z,25.91
2016-09-09T00:35:35.101Z,25.92
2016-09-09T00:36:34.794Z,25.97
2016-09-09T00:37:35.115Z,25.94
2016-09-09T00:38:35.171Z,25.91
2016-09-09T00:39:35.180Z,25.85
2016-09-09T00:40:35.139Z,25.91
2016-09-09T00:41:34.884Z,25.91
2016-09-09T00:42:34.894Z,25.9
2016-09-09T00:43:35.877Z,25.91
2016-09-09T00:44:35.171Z,25.91
2016-09-09T00:45:35.728Z,25.87
2016-09-09T00:46:35.473Z,25.87
2016-09-09T00:47:34.883Z,25.9
2016-09-09T00:48:34.885Z,25.88
2016-09-09T00:49:34.895Z,25.91
2016-09-09T00:50:34.589Z,25.9
2016-09-09T00:51:35.224Z,25.9
2016-09-09T00:52:35.242Z,25.88
2016-09-09T00:53:34.614Z,25.9
2016-09-09T00:54:35.735Z,25.85
2016-09-09T00:55:34.941Z,25.87
2016-09-09T00:56:35.249Z,25.88
2016-09-09T00:57:34.647Z,25.82
2016-09-09T00:58:34.966Z,25.83
2016-09-09T00:59:35.286Z,25.85
2016-09-09T01:00:35.297Z,25.9
2016-09-09T01:01:34.990Z,25.9
2016-09-09T01:02:34.996Z,25.85
2016-09-09T01:03:35.006Z,25.88
2016-09-09T01:04:34.702Z,25.87
2016-09-09T01:05:35.407Z,25.85
2016-09-09T01:06:35.028Z,25.83
2016-09-09T01:07:35.035Z,25.91
2016-09-09T01:08:34.730Z,25.9
2016-09-09T01:09:35.050Z,25.88
2016-09-09T01:10:34.750Z,25.88
2016-09-09T01:11:35.067Z,25.9
2016-09-09T01:12:35.085Z,25.88
2016-09-09T01:13:35.083Z,25.88
2016-09-09T01:14:35.092Z,25.83
2016-09-09T01:15:34.784Z,25.88
2016-09-09T01:16:35.309Z,25.88
2016-09-09T01:17:34.810Z,25.9
2016-09-09T01:18:34.829Z,25.91
2016-09-09T01:19:35.130Z,25.92
2016-09-09T01:20:34.834Z,25.92
2016-09-09T01:21:35.146Z,25.88
2016-09-09T01:22:35.163Z,25.9
2016-09-09T01:23:34.852Z,25.87
2016-09-09T01:24:35.178Z,25.82
2016-09-09T01:25:34.864Z,25.91
2016-09-09T01:26:35.188Z,25.82
2016-09-09T01:27:35.195Z,25.87
2016-09-09T01:28:35.205Z,25.85
2016-09-09T01:29:36.152Z,25.88
2016-09-09T01:30:35.219Z,25.8
2016-09-09T01:31:35.227Z,25.85
2016-09-09T01:32:35.236Z,25.83
2016-09-09T01:33:35.297Z,25.88
2016-09-09T01:34:35.250Z,25.79
2016-09-09T01:35:35.260Z,25.9
2016-09-09T01:36:35.266Z,25.88
2016-09-09T01:37:34.970Z,25.85
2016-09-09T01:38:37.115Z,25.83
2016-09-09T01:39:35.601Z,25.79
2016-09-09T01:40:35.950Z,25.83
2016-09-09T01:41:35.305Z,25.9
2016-09-09T01:42:36.367Z,25.77
2016-09-09T01:43:35.007Z,25.82
2016-09-09T01:44:35.329Z,25.85
2016-09-09T01:45:35.337Z,25.83
2016-09-09T01:46:35.657Z,25.83
2016-09-09T01:47:35.039Z,25.83
2016-09-09T01:48:35.359Z,25.73
2016-09-09T01:49:36.780Z,25.82
2016-09-09T01:50:35.062Z,25.9
2016-09-09T01:51:35.952Z,25.8
2016-09-09T01:52:35.391Z,25.76
2016-09-09T01:53:35.399Z,25.75
2016-09-09T01:54:35.718Z,25.79
2016-09-09T01:55:35.415Z,25.73
2016-09-09T01:56:35.419Z,25.82
2016-09-09T01:57:35.743Z,25.88
2016-09-09T01:58:35.437Z,25.72
2016-09-09T01:59:35.757Z,25.77
2016-09-09T02:00:36.636Z,25.76
2016-09-09T02:01:35.465Z,25.75
2016-09-09T02:02:35.767Z,25.75
2016-09-09T02:03:35.473Z,25.88
2016-09-09T02:04:35.483Z,25.76
2016-09-09T02:05:35.801Z,25.88
2016-09-09T02:06:35.497Z,25.85
2016-09-09T02:07:35.815Z,25.8
2016-09-09T02:08:35.513Z,25.88
2016-09-09T02:09:35.524Z,25.8
2016-09-09T02:10:35.528Z,25.76
2016-09-09T02:11:36.397Z,25.87
2016-09-09T02:12:35.869Z,25.82
2016-09-09T02:13:35.865Z,25.85
2016-09-09T02:14:35.565Z,25.82
2016-09-09T02:15:35.568Z,25.76
2016-09-09T02:16:35.889Z,25.82
2016-09-09T02:17:35.270Z,25.73
2016-09-09T02:18:35.592Z,25.76
2016-09-09T02:19:35.598Z,25.73
2016-09-09T02:20:35.922Z,25.83
2016-09-09T02:21:35.614Z,25.76
2016-09-09T02:22:36.374Z,25.83
2016-09-09T02:23:35.318Z,25.76
2016-09-09T02:24:35.637Z,25.79
2016-09-09T02:25:35.653Z,25.77
2016-09-09T02:26:35.656Z,25.8
2016-09-09T02:27:35.660Z,25.88
2016-09-09T02:28:35.358Z,25.79
2016-09-09T02:29:35.676Z,25.76
2016-09-09T02:30:35.373Z,25.85
2016-09-09T02:31:35.377Z,25.83
2016-09-09T02:32:35.703Z,25.77
2016-09-09T02:33:36.127Z,25.8
2016-09-09T02:34:35.718Z,25.76
2016-09-09T02:35:36.091Z,25.75
2016-09-09T02:36:36.044Z,25.72
2016-09-09T02:37:36.053Z,25.82
2016-09-09T02:38:36.116Z,25.76
2016-09-09T02:39:36.070Z,25.85
2016-09-09T02:40:36.126Z,25.77
2016-09-09T02:41:36.083Z,25.7
2016-09-09T02:42:35.469Z,25.83
2016-09-09T02:43:36.102Z,25.82
2016-09-09T02:44:36.210Z,25.7
2016-09-09T02:45:36.173Z,25.72
2016-09-09T02:46:35.817Z,25.77
2016-09-09T02:47:35.834Z,25.8
2016-09-09T02:48:36.139Z,25.8
2016-09-09T02:49:36.146Z,25.77
2016-09-09T02:50:35.531Z,25.79
2016-09-09T02:51:36.214Z,25.8
2016-09-09T02:52:35.866Z,25.77
2016-09-09T02:53:35.868Z,25.76
2016-09-09T02:54:35.875Z,25.73
2016-09-09T02:55:36.196Z,25.77
2016-09-09T02:56:36.202Z,25.8
2016-09-09T02:57:37.555Z,25.75
2016-09-09T02:58:35.902Z,25.73
2016-09-09T02:59:35.913Z,25.75
2016-09-09T03:00:35.953Z,25.73
2016-09-09T03:01:35.933Z,25.75
2016-09-09T03:02:35.932Z,25.75
2016-09-09T03:03:35.944Z,25.75
2016-09-09T03:04:35.635Z,25.7
2016-09-09T03:05:35.974Z,25.73
2016-09-09T03:06:35.961Z,25.72
2016-09-09T03:07:36.288Z,25.73
2016-09-09T03:08:37.331Z,25.75
2016-09-09T03:09:36.300Z,25.75
2016-09-09T03:10:35.686Z,25.8
2016-09-09T03:11:36.318Z,25.73
2016-09-09T03:12:36.014Z,25.72
2016-09-09T03:13:36.332Z,25.72
2016-09-09T03:14:35.716Z,25.76
2016-09-09T03:15:36.034Z,25.76
2016-09-09T03:16:36.358Z,25.73
2016-09-09T03:17:36.053Z,25.67
2016-09-09T03:18:36.056Z,25.73
2016-09-09T03:19:37.133Z,25.72
2016-09-09T03:20:36.075Z,25.67
2016-09-09T03:21:36.399Z,25.73
2016-09-09T03:22:36.097Z,25.73
2016-09-09T03:23:36.095Z,25.75
2016-09-09T03:24:35.794Z,25.69
2016-09-09T03:25:36.112Z,25.73
2016-09-09T03:26:35.810Z,25.75
2016-09-09T03:27:36.127Z,25.75
2016-09-09T03:28:37.111Z,25.73
2016-09-09T03:29:36.142Z,25.72
2016-09-09T03:30:37.117Z,25.67
2016-09-09T03:31:35.847Z,25.7
2016-09-09T03:32:36.487Z,25.76
2016-09-09T03:33:36.489Z,25.73
2016-09-09T03:34:36.497Z,25.72
2016-09-09T03:35:36.191Z,25.76
2016-09-09T03:36:36.197Z,25.7
2016-09-09T03:37:35.900Z,25.75
2016-09-09T03:38:36.311Z,25.69
2016-09-09T03:39:37.634Z,25.75
2016-09-09T03:40:36.276Z,25.73
2016-09-09T03:41:36.987Z,25.75
2016-09-09T03:42:36.558Z,25.65
2016-09-09T03:43:36.565Z,25.72
2016-09-09T03:44:36.623Z,25.69
2016-09-09T03:45:36.004Z,25.69
2016-09-09T03:46:35.969Z,25.72
2016-09-09T03:47:36.642Z,25.72
2016-09-09T03:48:35.983Z,25.67
2016-09-09T03:49:36.294Z,25.69
2016-09-09T03:50:37.673Z,25.73
2016-09-09T03:51:36.362Z,25.7
2016-09-09T03:52:36.933Z,25.69
2016-09-09T03:53:36.331Z,25.67
2016-09-09T03:54:36.648Z,25.75
2016-09-09T03:55:36.360Z,25.67
2016-09-09T03:56:36.666Z,25.65
2016-09-09T03:57:36.669Z,25.64
2016-09-09T03:58:36.366Z,25.69
2016-09-09T03:59:36.376Z,25.72
2016-09-09T04:00:36.692Z,25.7
2016-09-09T04:01:37.180Z,25.7
2016-09-09T04:02:36.707Z,25.69
2016-09-09T04:03:36.865Z,25.69
2016-09-09T04:04:36.409Z,25.73
2016-09-09T04:05:36.423Z,25.6
2016-09-09T04:06:36.427Z,25.69
2016-09-09T04:07:36.442Z,25.67
2016-09-09T04:08:36.754Z,25.6
2016-09-09T04:09:36.454Z,25.69
2016-09-09T04:10:36.460Z,25.65
2016-09-09T04:11:36.467Z,25.67
2016-09-09T04:12:36.161Z,25.6
2016-09-09T04:13:37.087Z,25.7
2016-09-09T04:14:37.001Z,25.67
2016-09-09T04:15:36.808Z,25.69
2016-09-09T04:16:36.516Z,25.6
2016-09-09T04:17:36.516Z,25.67
2016-09-09T04:18:36.835Z,25.6
2016-09-09T04:19:36.840Z,25.67
2016-09-09T04:20:36.538Z,25.61
2016-09-09T04:21:36.550Z,25.6
2016-09-09T04:22:36.553Z,25.61
2016-09-09T04:23:37.311Z,25.69
2016-09-09T04:24:36.883Z,25.69
2016-09-09T04:25:36.877Z,25.65
2016-09-09T04:26:36.908Z,25.62
2016-09-09T04:27:36.904Z,25.69
2016-09-09T04:28:36.598Z,25.62
2016-09-09T04:29:36.605Z,25.7
2016-09-09T04:30:36.934Z,25.69
2016-09-09T04:31:36.630Z,25.67
2016-09-09T04:32:36.627Z,25.58
2016-09-09T04:33:36.951Z,25.67
2016-09-09T04:34:37.260Z,25.57
2016-09-09T04:35:36.653Z,25.58
2016-09-09T04:36:36.662Z,25.65
2016-09-09T04:37:36.980Z,25.67
2016-09-09T04:38:36.462Z,25.6
2016-09-09T04:39:36.998Z,25.64
2016-09-09T04:40:36.690Z,25.67
2016-09-09T04:41:36.699Z,25.64
2016-09-09T04:42:37.020Z,25.69
2016-09-09T04:43:36.716Z,25.6
2016-09-09T04:44:36.723Z,25.58
2016-09-09T04:45:37.182Z,25.72
2016-09-09T04:46:37.053Z,25.6
2016-09-09T04:47:36.797Z,25.69
2016-09-09T04:48:36.753Z,25.64
2016-09-09T04:49:36.447Z,25.67
2016-09-09T04:50:36.771Z,25.69
2016-09-09T04:51:37.089Z,25.67
2016-09-09T04:52:37.094Z,25.61
2016-09-09T04:53:36.895Z,25.73
2016-09-09T04:54:37.110Z,25.7
2016-09-09T04:55:37.121Z,25.62
2016-09-09T04:56:36.821Z,25.62
2016-09-09T04:57:36.821Z,25.6
2016-09-09T04:58:38.821Z,25.58
2016-09-09T04:59:36.837Z,25.58
2016-09-09T05:00:36.845Z,25.61
2016-09-09T05:01:37.165Z,25.58
2016-09-09T05:02:36.859Z,25.67
2016-09-09T05:03:36.557Z,25.64
2016-09-09T05:04:36.878Z,25.69
2016-09-09T05:05:37.199Z,25.58
2016-09-09T05:06:36.889Z,25.58
2016-09-09T05:07:36.950Z,25.73
2016-09-09T05:08:36.600Z,25.58
2016-09-09T05:09:36.916Z,25.55
2016-09-09T05:10:36.922Z,25.61
2016-09-09T05:11:37.294Z,25.62
2016-09-09T05:12:37.251Z,25.62
2016-09-09T05:13:36.632Z,25.6
2016-09-09T05:14:37.264Z,25.6
2016-09-09T05:15:36.973Z,25.6
2016-09-09T05:16:37.279Z,25.62
2016-09-09T05:17:37.286Z,25.58
2016-09-09T05:18:37.298Z,25.69
2016-09-09T05:19:36.992Z,25.62
2016-09-09T05:20:38.539Z,25.67
2016-09-09T05:21:37.008Z,25.61
2016-09-09T05:22:37.326Z,25.57
2016-09-09T05:23:37.033Z,25.64
2016-09-09T05:24:37.029Z,25.65
2016-09-09T05:25:37.037Z,25.6
2016-09-09T05:26:37.356Z,25.67
2016-09-09T05:27:37.061Z,25.61
2016-09-09T05:28:37.067Z,25.61
2016-09-09T05:29:37.376Z,25.62
2016-09-09T05:30:36.763Z,25.7
2016-09-09T05:31:38.449Z,25.69
2016-09-09T05:32:37.137Z,25.69
2016-09-09T05:33:37.099Z,25.6
2016-09-09T05:34:37.415Z,25.72
2016-09-09T05:35:37.114Z,25.67
2016-09-09T05:36:37.121Z,25.6
2016-09-09T05:37:37.128Z,25.61
2016-09-09T05:38:36.824Z,25.61
2016-09-09T05:39:37.461Z,25.69
2016-09-09T05:40:37.207Z,25.7
2016-09-09T05:41:37.575Z,25.64
2016-09-09T05:42:38.169Z,25.7
2016-09-09T05:43:52.058Z,25.67
2016-09-09T05:44:37.200Z,25.6
2016-09-09T05:45:37.187Z,25.65
2016-09-09T05:46:37.197Z,25.61
2016-09-09T05:47:37.212Z,25.6
2016-09-09T05:48:37.532Z,25.62
2016-09-09T05:49:37.532Z,25.72
2016-09-09T05:50:37.542Z,25.64
2016-09-09T05:51:38.272Z,25.6
2016-09-09T05:52:37.608Z,25.62
2016-09-09T05:53:38.067Z,25.61
2016-09-09T05:54:37.571Z,25.62
2016-09-09T05:55:37.582Z,25.62
2016-09-09T05:56:36.963Z,25.65
2016-09-09T05:57:37.281Z,25.58
2016-09-09T05:58:37.604Z,25.62
2016-09-09T05:59:36.988Z,25.58
2016-09-09T06:00:37.623Z,25.57
2016-09-09T06:01:37.310Z,25.69
2016-09-09T06:02:38.435Z,25.65
2016-09-09T06:03:37.376Z,25.65
2016-09-09T06:04:37.902Z,25.58
2016-09-09T06:05:37.653Z,25.58
2016-09-09T06:06:37.665Z,25.57
2016-09-09T06:07:37.672Z,25.6
2016-09-09T06:08:37.367Z,25.6
2016-09-09T06:09:37.688Z,25.6
2016-09-09T06:10:37.695Z,25.6
2016-09-09T06:11:37.704Z,25.69
2016-09-09T06:12:37.710Z,25.67
2016-09-09T06:13:38.511Z,25.6
2016-09-09T06:14:37.104Z,25.61
2016-09-09T06:15:37.824Z,25.69
2016-09-09T06:16:37.429Z,25.61
2016-09-09T06:17:37.440Z,25.58
2016-09-09T06:18:37.446Z,25.62
2016-09-09T06:19:37.767Z,25.6
2016-09-09T06:20:37.458Z,25.62
2016-09-09T06:21:37.169Z,25.62
2016-09-09T06:22:37.476Z,25.67
2016-09-09T06:23:37.173Z,25.64
2016-09-09T06:24:38.354Z,25.7
2016-09-09T06:25:37.549Z,25.57
2016-09-09T06:26:37.817Z,25.6
2016-09-09T06:27:37.202Z,25.65
2016-09-09T06:28:37.839Z,25.65
2016-09-09T06:29:37.531Z,25.67
2016-09-09T06:30:37.538Z,25.58
2016-09-09T06:31:37.559Z,25.6
2016-09-09T06:32:37.604Z,25.7
2016-09-09T06:33:37.555Z,25.57
2016-09-09T06:34:37.570Z,25.58
2016-09-09T06:35:38.189Z,25.65
2016-09-09T06:36:37.584Z,25.6
2016-09-09T06:37:37.903Z,25.69
2016-09-09T06:38:37.598Z,25.6
2016-09-09T06:39:37.608Z,25.67
2016-09-09T06:40:37.614Z,25.69
2016-09-09T06:41:37.671Z,25.6
2016-09-09T06:42:37.366Z,25.69
2016-09-09T06:43:52.563Z,25.57
2016-09-09T06:44:37.647Z,25.58
2016-09-09T06:45:37.338Z,25.57
2016-09-09T06:46:38.173Z,25.57
2016-09-09T06:47:37.729Z,25.62
2016-09-09T06:48:37.727Z,25.65
2016-09-09T06:49:37.682Z,25.6
2016-09-09T06:50:37.693Z,25.65
2016-09-09T06:51:38.009Z,25.58
2016-09-09T06:52:37.388Z,25.61
2016-09-09T06:53:38.029Z,25.65
2016-09-09T06:54:37.720Z,25.62
2016-09-09T06:55:37.420Z,25.7
2016-09-09T06:56:38.041Z,25.65
2016-09-09T06:57:37.533Z,25.61
2016-09-09T06:58:37.746Z,25.69
2016-09-09T06:59:39.052Z,25.57
2016-09-09T07:00:38.076Z,25.62
2016-09-09T07:01:38.835Z,25.55
2016-09-09T07:02:38.093Z,25.6
2016-09-09T07:03:37.801Z,25.72
2016-09-09T07:04:38.114Z,25.61
2016-09-09T07:05:37.805Z,25.58
2016-09-09T07:06:38.124Z,25.6
2016-09-09T07:07:37.816Z,25.6
2016-09-09T07:08:37.974Z,25.65
2016-09-09T07:09:37.519Z,25.67
2016-09-09T07:10:37.890Z,25.69
2016-09-09T07:11:37.541Z,25.62
2016-09-09T07:12:38.956Z,25.6
2016-09-09T07:13:38.183Z,25.58
2016-09-09T07:14:38.190Z,25.62
2016-09-09T07:15:38.189Z,25.58
2016-09-09T07:16:37.624Z,25.62
2016-09-09T07:17:38.208Z,25.62
2016-09-09T07:18:37.901Z,25.6
2016-09-09T07:19:37.597Z,25.69
2016-09-09T07:20:37.655Z,25.58
2016-09-09T07:21:39.339Z,25.67
2016-09-09T07:22:37.930Z,25.58
2016-09-09T07:23:38.619Z,25.61
2016-09-09T07:24:37.945Z,25.61
2016-09-09T07:25:38.268Z,25.62
2016-09-09T07:26:38.275Z,25.64
2016-09-09T07:27:38.288Z,25.67
2016-09-09T07:28:38.292Z,25.58
2016-09-09T07:29:38.036Z,25.58
2016-09-09T07:30:38.307Z,25.6
2016-09-09T07:31:38.000Z,25.65
2016-09-09T07:32:38.990Z,25.58
2016-09-09T07:33:37.711Z,25.57
2016-09-09T07:34:38.723Z,25.57
2016-09-09T07:35:38.446Z,25.55
2016-09-09T07:36:38.038Z,25.62
2016-09-09T07:37:38.050Z,25.57
2016-09-09T07:38:38.364Z,25.46
2016-09-09T07:39:38.062Z,25.51
2016-09-09T07:40:38.065Z,25.5
2016-09-09T07:41:37.816Z,25.6
2016-09-09T07:42:37.824Z,25.57
2016-09-09T07:43:39.095Z,25.65
2016-09-09T07:44:38.099Z,25.64
2016-09-09T07:45:38.659Z,25.69
2016-09-09T07:46:38.164Z,25.67
2016-09-09T07:47:38.123Z,25.67
2016-09-09T07:48:38.182Z,25.7
2016-09-09T07:49:37.827Z,25.76
2016-09-09T07:50:38.148Z,25.73
2016-09-09T07:51:37.843Z,25.7
2016-09-09T07:52:39.138Z,25.75
2016-09-09T07:53:38.170Z,25.77
2016-09-09T07:54:39.349Z,25.76
2016-09-09T07:55:38.192Z,25.73
2016-09-09T07:56:38.606Z,25.76
2016-09-09T07:57:37.887Z,25.76
2016-09-09T07:58:38.211Z,25.73
2016-09-09T07:59:37.906Z,25.8
2016-09-09T08:00:38.539Z,25.79
2016-09-09T08:01:38.235Z,25.7
2016-09-09T08:02:37.927Z,25.72
2016-09-09T08:03:39.673Z,25.72
2016-09-09T08:04:38.259Z,25.73
2016-09-09T08:05:38.818Z,25.72
2016-09-09T08:06:38.271Z,25.72
2016-09-09T08:07:38.487Z,24.65
2016-09-09T08:08:38.288Z,24.22
2016-09-09T08:09:38.605Z,24.55
2016-09-09T08:10:38.302Z,24.25
2016-09-09T08:11:38.355Z,24.87
2016-09-09T08:12:38.313Z,24.98
2016-09-09T08:13:38.334Z,25.15
2016-09-09T08:14:39.814Z,24.99
2016-09-09T08:15:38.076Z,25.08
2016-09-09T08:16:38.935Z,24.93
2016-09-09T08:17:38.656Z,25.09
2016-09-09T08:18:38.553Z,25.17
2016-09-09T08:19:38.362Z,25.24
2016-09-09T08:20:38.680Z,25.33
2016-09-09T08:21:38.377Z,24.57
2016-09-09T08:22:38.739Z,24.13
2016-09-09T08:23:38.074Z,23.27
2016-09-09T08:24:38.392Z,23.42
2016-09-09T08:25:39.820Z,23.53
2016-09-09T08:26:38.105Z,23.46
2016-09-09T08:27:38.762Z,23.61
2016-09-09T08:28:38.725Z,23.48
2016-09-09T08:29:38.835Z,23.88
2016-09-09T08:30:38.425Z,23.94
2016-09-09T08:31:38.793Z,24.03
2016-09-09T08:32:38.448Z,23.19
2016-09-09T08:33:38.438Z,23.46
2016-09-09T08:34:38.130Z,23.55
2016-09-09T08:35:38.452Z,23.95
2016-09-09T08:36:39.794Z,24.55
2016-09-09T08:37:38.461Z,24.85
2016-09-09T08:38:39.529Z,25.05
2016-09-09T08:39:38.163Z,24.8
2016-09-09T08:40:38.814Z,24.49
2016-09-09T08:41:38.796Z,24.68
2016-09-09T08:42:38.800Z,24.83
2016-09-09T08:43:38.807Z,24.91
2016-09-09T08:44:38.815Z,25.14
2016-09-09T08:45:38.819Z,25.08
2016-09-09T08:46:38.827Z,25.15
2016-09-09T08:47:39.432Z,25.18
2016-09-09T08:48:38.526Z,24.98
2016-09-09T08:49:39.131Z,24.69
2016-09-09T08:50:38.542Z,23.95
2016-09-09T08:51:38.684Z,23.15
2016-09-09T08:52:38.864Z,23.39
2016-09-09T08:53:38.870Z,23.55
2016-09-09T08:54:38.876Z,23.51
2016-09-09T08:55:38.254Z,23.27
2016-09-09T08:56:38.568Z,22.49
2016-09-09T08:57:38.261Z,22.82
2016-09-09T08:58:39.998Z,23.43
2016-09-09T08:59:38.897Z,23.55
2016-09-09T09:00:39.348Z,23.53
2016-09-09T09:01:38.594Z,23.7
2016-09-09T09:02:38.963Z,23.78
2016-09-09T09:03:38.603Z,24.2
2016-09-09T09:04:38.615Z,24.05
2016-09-09T09:05:38.976Z,24
2016-09-09T09:06:38.619Z,23.85
2016-09-09T09:07:38.308Z,24.32
2016-09-09T09:08:38.314Z,24.81
2016-09-09T09:09:39.685Z,25.05
2016-09-09T09:10:39.057Z,25.27
2016-09-09T09:11:38.951Z,25.3
2016-09-09T09:12:38.654Z,25.17
2016-09-09T09:13:38.508Z,25.17
2016-09-09T09:14:38.665Z,24.64
2016-09-09T09:15:38.732Z,23.69
2016-09-09T09:16:38.363Z,23.73
2016-09-09T09:17:38.996Z,23.93
2016-09-09T09:18:38.689Z,24.46
2016-09-09T09:19:38.792Z,24.3
2016-09-09T09:20:39.602Z,24.65
2016-09-09T09:21:38.719Z,24.22
2016-09-09T09:22:38.813Z,23.78
2016-09-09T09:23:39.031Z,23.7
2016-09-09T09:24:38.456Z,24.34
2016-09-09T09:25:39.037Z,24.73
2016-09-09T09:26:38.734Z,24.83
2016-09-09T09:27:38.739Z,23.85
2016-09-09T09:28:39.060Z,23.83
2016-09-09T09:29:38.752Z,24.39
2016-09-09T09:30:39.069Z,24.35
2016-09-09T09:31:39.873Z,24.62
2016-09-09T09:32:38.767Z,24.76
2016-09-09T09:33:38.809Z,24.91
2016-09-09T09:34:39.090Z,24.69
2016-09-09T09:35:38.836Z,24.8
2016-09-09T09:36:38.791Z,24.8
2016-09-09T09:37:39.121Z,25.09
2016-09-09T09:38:38.493Z,24.98
2016-09-09T09:39:38.812Z,25.2
2016-09-09T09:40:39.129Z,25.33
2016-09-09T09:41:39.134Z,25.36
2016-09-09T09:42:39.429Z,25.02
2016-09-09T09:43:39.145Z,24.5
2016-09-09T09:44:38.831Z,23.98
2016-09-09T09:45:38.855Z,24.22
2016-09-09T09:46:38.853Z,24.57
2016-09-09T09:47:38.855Z,24.22
2016-09-09T09:48:38.871Z,23.98
2016-09-09T09:49:38.865Z,24.24
2016-09-09T09:50:38.878Z,24.77
2016-09-09T09:51:38.563Z,25.14
2016-09-09T09:52:38.573Z,24.83
2016-09-09T09:53:39.693Z,24.84
2016-09-09T09:54:39.213Z,25.08
2016-09-09T09:55:39.456Z,24.47
2016-09-09T09:56:39.277Z,23.84
2016-09-09T09:57:38.972Z,24.3
2016-09-09T09:58:38.928Z,24.71
2016-09-09T09:59:38.928Z,25.06
2016-09-09T10:00:38.939Z,25.03
2016-09-09T10:01:39.262Z,25
2016-09-09T10:02:39.259Z,25.09
2016-09-09T10:03:39.263Z,25.27
2016-09-09T10:04:39.859Z,25.4
2016-09-09T10:05:38.975Z,25.27
2016-09-09T10:06:39.526Z,24.81
2016-09-09T10:07:38.980Z,25
2016-09-09T10:08:38.825Z,25.2
2016-09-09T10:09:39.305Z,25.36
2016-09-09T10:10:39.000Z,25.45
2016-09-09T10:11:39.007Z,25.33
2016-09-09T10:12:39.063Z,25.2
2016-09-09T10:13:38.759Z,25.42
2016-09-09T10:14:39.036Z,25.1
2016-09-09T10:15:39.982Z,25.21
2016-09-09T10:16:39.042Z,25.33
2016-09-09T10:17:39.338Z,25.13
2016-09-09T10:18:39.058Z,24.76
2016-09-09T10:19:39.376Z,25
2016-09-09T10:20:39.377Z,24.87
2016-09-09T10:21:39.075Z,24.61
2016-09-09T10:22:39.394Z,24.71
2016-09-09T10:23:38.780Z,25.05
2016-09-09T10:24:38.779Z,24.67
2016-09-09T10:25:39.099Z,24.4
2016-09-09T10:26:40.054Z,24.37
2016-09-09T10:27:39.121Z,24.68
2016-09-09T10:28:39.669Z,25.1
2016-09-09T10:29:39.494Z,24.88
2016-09-09T10:30:38.967Z,24.9
2016-09-09T10:31:39.137Z,25.15
2016-09-09T10:32:39.140Z,25.24
2016-09-09T10:33:39.512Z,24.67
2016-09-09T10:34:38.839Z,24.34
2016-09-09T10:35:39.213Z,24.22
2016-09-09T10:36:39.221Z,24.53
2016-09-09T10:37:40.439Z,25
2016-09-09T10:38:38.865Z,25.14
2016-09-09T10:39:39.747Z,24.98
2016-09-09T10:40:39.502Z,25.2
2016-09-09T10:41:39.522Z,25.18
2016-09-09T10:42:38.898Z,25.06
2016-09-09T10:43:38.899Z,25.21
2016-09-09T10:44:38.906Z,25.2
2016-09-09T10:45:39.225Z,25.25
2016-09-09T10:46:39.229Z,25.39
2016-09-09T10:47:38.924Z,25.38
2016-09-09T10:48:40.045Z,25.46
2016-09-09T10:49:39.570Z,25.27
2016-09-09T10:50:39.677Z,25.15
2016-09-09T10:51:39.579Z,25.13
2016-09-09T10:52:38.956Z,25.2
2016-09-09T10:53:38.961Z,25.21
2016-09-09T10:54:38.969Z,24.95
2016-09-09T10:55:39.603Z,24.93
2016-09-09T10:56:39.297Z,24.88
2016-09-09T10:57:39.304Z,24.83
2016-09-09T10:58:39.309Z,24.67
2016-09-09T10:59:40.327Z,24.99
2016-09-09T11:00:39.320Z,25
2016-09-09T11:01:39.312Z,25.13
2016-09-09T11:02:39.020Z,25.06
2016-09-09T11:03:39.648Z,25.06
2016-09-09T11:04:39.030Z,24.96
2016-09-09T11:05:39.398Z,24.88
2016-09-09T11:06:39.047Z,25.21
2016-09-09T11:07:39.363Z,25.23
2016-09-09T11:08:39.056Z,25.36
2016-09-09T11:09:39.212Z,25.17
2016-09-09T11:10:39.773Z,25.27
2016-09-09T11:11:39.391Z,25.47
2016-09-09T11:12:39.772Z,25.54
2016-09-09T11:13:39.093Z,25.2
2016-09-09T11:14:39.409Z,24.52
2016-09-09T11:15:39.416Z,24.83
2016-09-09T11:16:39.430Z,25.2
2016-09-09T11:17:39.739Z,24.98
2016-09-09T11:18:39.429Z,24.96
2016-09-09T11:19:39.440Z,24.68
2016-09-09T11:20:39.496Z,24.81
2016-09-09T11:21:40.515Z,25.05
2016-09-09T11:22:39.458Z,25
2016-09-09T11:23:39.865Z,25.06
2016-09-09T11:24:39.472Z,24.81
2016-09-09T11:25:39.791Z,24.84
2016-09-09T11:26:39.485Z,25.1
2016-09-09T11:27:39.803Z,25.05
2016-09-09T11:28:39.816Z,25.13
2016-09-09T11:29:39.239Z,24.98
2016-09-09T11:30:39.510Z,25.2
2016-09-09T11:31:39.513Z,25.3
2016-09-09T11:32:40.312Z,24.91
2016-09-09T11:33:39.530Z,25.08
2016-09-09T11:34:40.246Z,24.99
2016-09-09T11:35:39.537Z,25.36
2016-09-09T11:36:39.610Z,25.47
2016-09-09T11:37:39.548Z,25.2
2016-09-09T11:38:39.658Z,25.21
2016-09-09T11:39:40.155Z,25.28
2016-09-09T11:40:39.308Z,25.23
2016-09-09T11:41:39.575Z,25.21
2016-09-09T11:42:39.594Z,25.18
2016-09-09T11:43:40.690Z,25.33
2016-09-09T11:44:39.909Z,24.9
2016-09-09T11:45:40.518Z,24.68
2016-09-09T11:46:39.604Z,24.85
2016-09-09T11:47:39.977Z,24.83
2016-09-09T11:48:39.616Z,24.35
2016-09-09T11:49:39.623Z,24.71
2016-09-09T11:50:39.945Z,25.03
2016-09-09T11:51:39.638Z,24.96
2016-09-09T11:52:39.642Z,25.09
2016-09-09T11:53:39.336Z,25.03
2016-09-09T11:54:39.712Z,25.1
2016-09-09T11:55:39.354Z,25.08
2016-09-09T11:56:40.926Z,24.98
2016-09-09T11:57:39.670Z,24.95
2016-09-09T11:58:40.216Z,25.03
2016-09-09T11:59:39.684Z,24.96
2016-09-09T12:00:39.998Z,25.05
2016-09-09T12:01:40.021Z,25.18
2016-09-09T12:02:40.013Z,25.24
2016-09-09T12:03:39.707Z,25.3
2016-09-09T12:04:39.775Z,25.15
2016-09-09T12:05:41.005Z,25.1
2016-09-09T12:06:39.418Z,25.1
2016-09-09T12:07:40.539Z,25.25
2016-09-09T12:08:39.740Z,25.38
2016-09-09T12:09:40.182Z,25.42
2016-09-09T12:10:40.062Z,25.13
2016-09-09T12:11:39.758Z,25.02
2016-09-09T12:12:40.075Z,25
2016-09-09T12:13:40.133Z,25.23
2016-09-09T12:14:39.464Z,25.47
2016-09-09T12:15:39.778Z,25.38
2016-09-09T12:16:39.789Z,25.55
2016-09-09T12:17:39.840Z,25.45
2016-09-09T12:18:41.062Z,25.23
2016-09-09T12:19:39.861Z,25.18
2016-09-09T12:20:40.365Z,25.21
2016-09-09T12:21:40.141Z,25.45
2016-09-09T12:22:39.827Z,25.47
2016-09-09T12:23:39.842Z,25.33
2016-09-09T12:24:40.148Z,25.36
2016-09-09T12:25:39.850Z,25.38
2016-09-09T12:26:39.852Z,25.5
2016-09-09T12:27:39.861Z,25.52
2016-09-09T12:28:40.229Z,25.3
2016-09-09T12:29:40.828Z,25.32
2016-09-09T12:30:39.978Z,25.39
2016-09-09T12:31:40.537Z,25.23
2016-09-09T12:32:40.209Z,25.32
2016-09-09T12:33:39.585Z,25.43
2016-09-09T12:34:40.223Z,25.1
2016-09-09T12:35:39.912Z,24.9
2016-09-09T12:36:39.915Z,25.06
2016-09-09T12:37:39.660Z,25.4
2016-09-09T12:38:39.983Z,25.33
2016-09-09T12:39:39.934Z,25.18
2016-09-09T12:40:39.978Z,25.18
2016-09-09T12:41:40.262Z,25.39
2016-09-09T12:42:40.903Z,25.54
2016-09-09T12:43:39.960Z,25.62
2016-09-09T12:44:39.969Z,25.42
2016-09-09T12:45:40.339Z,25.51
2016-09-09T12:46:39.668Z,25.58
2016-09-09T12:47:40.313Z,25.47
2016-09-09T12:48:39.993Z,25.51
2016-09-09T12:49:39.734Z,25.33
2016-09-09T12:50:40.006Z,25.38
2016-09-09T12:51:39.699Z,25.32
2016-09-09T12:52:40.020Z,25.47
2016-09-09T12:53:39.713Z,25.58
2016-09-09T12:54:40.031Z,25.69
2016-09-09T12:55:39.778Z,25.85
2016-09-09T12:56:40.045Z,25.82
2016-09-09T12:57:40.051Z,25.54